createdAt,value
2022-12-09T00:00:10.612Z,7.75
2022-12-09T00:02:38.756Z,6.40
2022-12-09T00:05:06.540Z,6.22
2022-12-09T00:07:36.317Z,6.93
2022-12-09T00:10:05.218Z,6.70
2022-12-09T00:12:32.733Z,6.35
2022-12-09T00:14:59.807Z,6.50
2022-12-09T00:17:26.845Z,6.55
2022-12-09T00:19:54.224Z,6.03
2022-12-09T00:22:21.477Z,6.70
2022-12-09T00:24:48.576Z,6.80
2022-12-09T00:27:15.682Z,6.20
2022-12-09T00:29:42.796Z,6.13
2022-12-09T00:32:09.878Z,6.07
2022-12-09T00:34:37.253Z,6.18
2022-12-09T00:37:04.492Z,5.88
2022-12-09T00:39:31.549Z,5.65
2022-12-09T00:41:58.637Z,6.45
2022-12-09T00:44:25.636Z,5.93
2022-12-09T00:46:52.812Z,6.68
2022-12-09T00:49:19.838Z,6.47
2022-12-09T00:51:46.888Z,6.60
2022-12-09T00:54:14.280Z,5.93
2022-12-09T00:56:41.433Z,5.60
2022-12-09T00:59:08.593Z,6.00
2022-12-09T01:01:36.011Z,5.88
2022-12-09T01:04:05.387Z,5.88
2022-12-09T01:06:32.699Z,5.97
2022-12-09T01:08:59.995Z,5.68
2022-12-09T01:11:29.101Z,5.75
2022-12-09T01:14:01.346Z,6.63
2022-12-09T01:16:32.410Z,5.32
2022-12-09T01:19:02.707Z,5.53
2022-12-09T01:21:30.501Z,5.50
2022-12-09T01:23:57.711Z,5.78
2022-12-09T01:26:24.801Z,6.00
2022-12-09T01:28:53.452Z,5.90
2022-12-09T01:31:23.447Z,5.53
2022-12-09T01:33:51.093Z,5.63
2022-12-09T01:36:24.583Z,6.45
2022-12-09T01:38:52.065Z,5.65
2022-12-09T01:41:20.001Z,6.57
2022-12-09T01:44:14.979Z,5.07
2022-12-09T01:46:42.829Z,6.38
2022-12-09T01:49:15.003Z,6.22
2022-12-09T01:51:43.684Z,5.22
2022-12-09T01:54:11.022Z,5.60
2022-12-09T01:56:39.919Z,5.60
2022-12-09T01:59:11.119Z,5.47
2022-12-09T02:01:39.679Z,5.25
2022-12-09T02:04:07.677Z,5.07
2022-12-09T02:06:38.672Z,4.68
2022-12-09T02:09:06.126Z,4.95
2022-12-09T02:12:13.295Z,4.95
2022-12-09T02:15:03.995Z,5.03
2022-12-09T02:17:44.645Z,4.85
2022-12-09T02:20:25.959Z,5.35
2022-12-09T02:23:05.007Z,4.93
2022-12-09T02:25:46.373Z,5.55
2022-12-09T02:28:53.430Z,4.45
2022-12-09T02:31:47.919Z,4.57
2022-12-09T02:34:22.620Z,4.25
2022-12-09T02:37:17.888Z,4.88
2022-12-09T02:40:13.115Z,5.53
2022-12-09T02:42:42.720Z,4.97
2022-12-09T02:45:11.706Z,4.43
2022-12-09T02:47:44.223Z,4.72
2022-12-09T02:50:14.998Z,4.60
2022-12-09T02:52:45.067Z,4.85
2022-12-09T02:55:15.915Z,4.80
2022-12-09T02:57:43.524Z,4.85
2022-12-09T03:00:14.898Z,5.38
2022-12-09T03:02:46.155Z,4.90
2022-12-09T03:05:40.674Z,5.03
2022-12-09T03:08:35.501Z,4.82
2022-12-09T03:11:10.584Z,4.35
2022-12-09T03:14:03.729Z,4.55
2022-12-09T03:16:49.359Z,4.57
2022-12-09T03:19:40.592Z,4.75
2022-12-09T03:22:13.634Z,5.05
2022-12-09T03:24:53.089Z,4.38
2022-12-09T03:27:30.351Z,4.57
2022-12-09T03:29:59.349Z,4.00
2022-12-09T03:32:29.204Z,4.60
2022-12-09T03:35:03.539Z,4.35
2022-12-09T03:37:32.409Z,4.55
2022-12-09T03:40:00.847Z,4.13
2022-12-09T03:42:39.910Z,4.20
2022-12-09T03:45:11.804Z,4.07
2022-12-09T03:47:39.119Z,4.10
2022-12-09T03:50:08.062Z,3.78
2022-12-09T03:52:45.909Z,4.35
2022-12-09T03:55:45.230Z,4.40
2022-12-09T03:58:13.809Z,3.65
2022-12-09T04:00:41.480Z,4.03
2022-12-09T04:03:09.147Z,5.05
2022-12-09T04:05:36.409Z,3.97
2022-12-09T04:08:03.592Z,3.50
2022-12-09T04:10:30.665Z,4.70
2022-12-09T04:12:57.804Z,4.07
2022-12-09T04:15:25.189Z,4.35
2022-12-09T04:17:52.376Z,4.28
2022-12-09T04:20:19.582Z,4.03
2022-12-09T04:22:46.893Z,4.90
2022-12-09T04:25:14.401Z,3.88
2022-12-09T04:27:41.684Z,3.92
2022-12-09T04:30:09.671Z,3.95
2022-12-09T04:32:37.501Z,4.18
2022-12-09T04:35:04.950Z,4.30
2022-12-09T04:37:32.720Z,3.95
2022-12-09T04:39:59.758Z,3.97
2022-12-09T04:42:29.121Z,3.90
2022-12-09T04:44:56.576Z,4.57
2022-12-09T04:47:23.815Z,4.18
2022-12-09T04:49:51.009Z,4.10
2022-12-09T04:52:19.214Z,4.13
2022-12-09T04:54:46.310Z,3.78
2022-12-09T04:57:13.729Z,4.50
2022-12-09T04:59:40.840Z,4.18
2022-12-09T05:02:08.053Z,3.88
2022-12-09T05:04:35.922Z,3.85
2022-12-09T05:07:03.212Z,3.40
2022-12-09T05:09:30.483Z,4.60
2022-12-09T05:11:58.742Z,3.72
2022-12-09T05:14:26.390Z,4.22
2022-12-09T05:16:53.818Z,3.95
2022-12-09T05:19:21.112Z,3.88
2022-12-09T05:21:48.654Z,3.63
2022-12-09T05:24:16.107Z,4.22
2022-12-09T05:26:43.466Z,3.60
2022-12-09T05:29:11.013Z,4.10
2022-12-09T05:31:38.399Z,3.90
2022-12-09T05:34:05.639Z,4.80
2022-12-09T05:36:33.574Z,3.78
2022-12-09T05:39:01.038Z,4.50
2022-12-09T05:41:28.543Z,4.93
2022-12-09T05:43:56.741Z,4.13
2022-12-09T05:46:24.251Z,4.80
2022-12-09T05:48:51.725Z,4.75
2022-12-09T05:51:28.111Z,4.50
2022-12-09T05:53:57.515Z,4.50
2022-12-09T05:56:25.485Z,4.80
2022-12-09T05:58:54.006Z,5.07
2022-12-09T06:01:22.772Z,4.63
2022-12-09T06:03:51.359Z,4.93
2022-12-09T06:06:22.923Z,4.70
2022-12-09T06:08:50.327Z,4.60
2022-12-09T06:11:21.054Z,4.82
2022-12-09T06:16:19.659Z,5.45
2022-12-09T06:18:48.019Z,5.72
2022-12-09T06:21:17.864Z,5.43
2022-12-09T06:23:45.571Z,5.63
2022-12-09T06:26:28.432Z,5.32
2022-12-09T06:28:56.858Z,5.90
2022-12-09T06:31:25.117Z,5.07
2022-12-09T06:33:56.328Z,5.80
2022-12-09T06:36:25.087Z,6.20
2022-12-09T06:38:52.663Z,6.13
2022-12-09T06:41:19.955Z,5.57
2022-12-09T06:43:47.513Z,6.00
2022-12-09T06:46:21.229Z,5.32
2022-12-09T06:48:48.974Z,6.03
2022-12-09T06:51:17.747Z,6.10
2022-12-09T06:53:45.690Z,6.38
2022-12-09T06:56:14.326Z,7.50
2022-12-09T06:58:43.745Z,7.32
2022-12-09T07:01:17.356Z,6.57
2022-12-09T07:03:47.912Z,7.18
2022-12-09T07:06:32.720Z,7.53
2022-12-09T07:09:02.983Z,6.53
2022-12-09T07:11:31.054Z,7.00
2022-12-09T07:13:58.975Z,6.90
2022-12-09T07:16:26.692Z,6.93
2022-12-09T07:18:54.567Z,7.90
2022-12-09T07:21:23.390Z,6.55
2022-12-09T07:23:51.213Z,6.80
2022-12-09T07:26:20.028Z,6.57
2022-12-09T07:28:48.171Z,7.30
2022-12-09T07:31:27.523Z,7.47
2022-12-09T07:33:57.460Z,6.70
2022-12-09T07:36:27.978Z,8.32
2022-12-09T07:41:27.318Z,7.47
2022-12-09T07:43:55.323Z,7.65
2022-12-09T07:46:24.330Z,7.45
2022-12-09T07:48:51.989Z,7.88
2022-12-09T07:51:19.360Z,7.65
2022-12-09T07:53:47.155Z,6.80
2022-12-09T07:56:16.283Z,7.50
2022-12-09T07:58:45.357Z,7.25
2022-12-09T08:01:15.435Z,8.13
2022-12-09T08:03:43.624Z,7.03
2022-12-09T08:06:16.142Z,7.15
2022-12-09T08:08:44.622Z,7.65
2022-12-09T08:11:23.661Z,7.15
2022-12-09T08:13:52.370Z,7.68
2022-12-09T08:16:22.118Z,8.15
2022-12-09T08:18:50.791Z,7.18
2022-12-09T08:21:28.609Z,7.40
2022-12-09T08:23:57.696Z,7.63
2022-12-09T08:26:26.325Z,6.95
2022-12-09T08:28:54.812Z,6.47
2022-12-09T08:31:24.755Z,7.25
2022-12-09T08:33:54.131Z,7.65
2022-12-09T08:36:27.401Z,7.57
2022-12-09T08:38:58.220Z,6.88
2022-12-09T08:41:38.422Z,7.03
2022-12-09T08:46:40.233Z,7.20
2022-12-09T08:49:09.384Z,7.70
2022-12-09T08:51:38.146Z,7.00
2022-12-09T08:54:06.817Z,6.93
2022-12-09T08:56:34.494Z,6.20
2022-12-09T08:59:02.203Z,6.75
2022-12-09T09:01:35.872Z,6.35
2022-12-09T09:04:06.816Z,6.72
2022-12-09T09:06:35.328Z,6.82
2022-12-09T09:09:03.338Z,5.20
2022-12-09T09:11:30.778Z,6.63
2022-12-09T09:13:58.636Z,6.60
2022-12-09T09:16:27.716Z,7.00
2022-12-09T09:18:55.658Z,5.85
2022-12-09T09:21:25.061Z,5.45
2022-12-09T09:23:52.642Z,5.80
2022-12-09T09:26:23.099Z,5.93
2022-12-09T09:28:51.117Z,5.82
2022-12-09T09:31:21.605Z,5.95
2022-12-09T09:33:49.920Z,6.38
2022-12-09T09:36:22.924Z,6.22
2022-12-09T09:38:53.094Z,5.63
2022-12-09T09:42:04.596Z,5.32
2022-12-09T09:44:46.399Z,5.47
2022-12-09T09:47:19.808Z,6.35
2022-12-09T09:49:57.970Z,6.38
2022-12-09T09:52:28.281Z,6.03
2022-12-09T09:57:47.329Z,5.63
2022-12-09T10:00:44.493Z,6.20
2022-12-09T10:03:19.881Z,5.72
2022-12-09T10:05:55.216Z,5.50
2022-12-09T10:08:49.882Z,6.18
2022-12-09T10:11:31.824Z,6.05
2022-12-09T10:14:22.760Z,6.57
2022-12-09T10:17:22.052Z,6.03
2022-12-09T10:19:53.554Z,5.80
2022-12-09T10:22:29.929Z,5.95
2022-12-09T10:25:00.142Z,5.78
2022-12-09T10:30:17.431Z,6.20
2022-12-09T10:32:45.204Z,6.45
2022-12-09T10:35:20.665Z,5.82
2022-12-09T10:37:49.999Z,5.90
2022-12-09T10:40:32.865Z,6.05
2022-12-09T10:43:20.694Z,5.75
2022-12-09T10:48:53.869Z,6.18
2022-12-09T10:51:30.323Z,5.97
2022-12-09T10:54:20.945Z,5.63
2022-12-09T10:57:24.345Z,5.95
2022-12-09T11:00:02.790Z,6.05
2022-12-09T11:02:31.266Z,5.75
2022-12-09T11:05:25.521Z,6.22
2022-12-09T11:07:56.275Z,5.55
2022-12-09T11:10:26.798Z,6.28
2022-12-09T11:13:01.655Z,5.75
2022-12-09T11:15:41.491Z,6.22
2022-12-09T11:18:30.204Z,5.80
2022-12-09T11:21:01.146Z,6.78
2022-12-09T11:23:29.895Z,6.30
2022-12-09T11:26:01.024Z,6.22
2022-12-09T11:28:31.296Z,6.30
2022-12-09T11:33:56.272Z,7.07
2022-12-09T11:36:33.439Z,6.78
2022-12-09T11:39:19.736Z,6.50
2022-12-09T11:42:17.117Z,6.50
2022-12-09T11:45:17.415Z,5.75
2022-12-09T11:50:37.052Z,6.80
2022-12-09T11:55:59.060Z,6.88
2022-12-09T11:58:34.911Z,6.97
2022-12-09T12:01:15.048Z,6.53
2022-12-09T12:03:48.391Z,6.97
2022-12-09T12:06:25.414Z,6.97
2022-12-09T12:09:04.149Z,6.68
2022-12-09T12:11:40.548Z,6.63
2022-12-09T12:14:19.095Z,6.75
2022-12-09T12:17:03.413Z,7.40
2022-12-09T12:19:35.182Z,6.75
2022-12-09T12:22:30.382Z,6.57
2022-12-09T12:25:25.420Z,7.57
2022-12-09T12:28:29.898Z,7.30
2022-12-09T12:31:36.793Z,7.18
2022-12-09T12:34:26.461Z,7.55
2022-12-09T12:37:25.183Z,8.25
2022-12-09T12:40:11.124Z,8.13
2022-12-09T12:43:16.276Z,8.27
2022-12-09T12:46:18.840Z,7.43
2022-12-09T12:49:25.653Z,7.50
2022-12-09T12:52:47.452Z,8.07
2022-12-09T12:55:26.256Z,8.32
2022-12-09T12:58:11.459Z,7.10
2022-12-09T13:01:15.715Z,8.18
2022-12-09T13:04:08.885Z,9.30
2022-12-09T13:07:02.130Z,8.20
2022-12-09T13:09:51.372Z,8.15
2022-12-09T13:12:44.627Z,9.00
2022-12-09T13:15:16.555Z,8.68
2022-12-09T13:17:45.973Z,8.00
2022-12-09T13:20:32.576Z,8.83
2022-12-09T13:23:12.306Z,8.90
2022-12-09T13:25:49.885Z,7.88
2022-12-09T13:28:25.654Z,8.38
2022-12-09T13:30:58.777Z,8.27
2022-12-09T13:34:05.532Z,8.23
2022-12-09T13:36:40.881Z,8.73
2022-12-09T13:39:12.571Z,9.18
2022-12-09T13:42:01.931Z,8.77
2022-12-09T13:44:32.662Z,8.93
2022-12-09T13:47:33.547Z,8.68
2022-12-09T13:50:34.767Z,8.98
2022-12-09T13:53:06.659Z,9.00
2022-12-09T13:55:39.892Z,8.90
2022-12-09T13:58:36.618Z,8.18
2022-12-09T14:01:18.291Z,9.55
2022-12-09T14:04:14.891Z,9.10
2022-12-09T14:07:21.689Z,8.85
2022-12-09T14:09:53.982Z,8.93
2022-12-09T14:13:00.718Z,9.35
2022-12-09T14:15:36.146Z,9.65
2022-12-09T14:18:05.983Z,9.30
2022-12-09T14:20:39.710Z,9.35
2022-12-09T14:23:14.965Z,8.63
2022-12-09T14:25:58.481Z,10.57
2022-12-09T14:28:40.745Z,8.65
2022-12-09T14:31:09.255Z,9.15
2022-12-09T14:33:41.038Z,9.50
2022-12-09T14:36:31.092Z,9.85
2022-12-09T14:39:24.572Z,8.75
2022-12-09T14:42:01.702Z,9.00
2022-12-09T14:44:56.897Z,10.05
2022-12-09T14:47:28.946Z,8.90
2022-12-09T14:50:05.064Z,9.75
2022-12-09T14:52:34.491Z,9.75
2022-12-09T14:55:06.789Z,8.88
2022-12-09T14:57:48.165Z,9.75
2022-12-09T15:00:36.160Z,10.25
2022-12-09T15:03:32.098Z,10.02
2022-12-09T15:06:03.940Z,9.55
2022-12-09T15:08:36.675Z,9.70
2022-12-09T15:11:19.683Z,9.82
2022-12-09T15:13:50.314Z,9.63
2022-12-09T15:16:20.240Z,9.43
2022-12-09T15:18:47.816Z,9.80
2022-12-09T15:21:31.063Z,9.57
2022-12-09T15:24:00.168Z,9.68
2022-12-09T15:26:29.594Z,9.60
2022-12-09T15:28:59.499Z,9.80
2022-12-09T15:31:30.087Z,9.10
2022-12-09T15:33:59.662Z,8.05
2022-12-09T15:36:36.040Z,8.53
2022-12-09T15:39:08.011Z,9.25
2022-12-09T15:42:04.018Z,8.77
2022-12-09T15:44:36.860Z,9.27
2022-12-09T15:47:10.425Z,9.32
2022-12-09T15:49:44.231Z,9.05
2022-12-09T15:52:13.305Z,9.30
2022-12-09T15:54:43.273Z,9.60
2022-12-09T15:57:13.397Z,8.75
2022-12-09T15:59:43.899Z,9.13
2022-12-09T16:02:15.523Z,8.35
2022-12-09T16:04:47.114Z,8.25
2022-12-09T16:07:16.663Z,9.27
2022-12-09T16:10:14.027Z,8.05
2022-12-09T16:12:42.729Z,8.23
2022-12-09T16:15:12.985Z,8.32
2022-12-09T16:17:55.737Z,8.90
2022-12-09T16:20:34.303Z,7.72
2022-12-09T16:23:03.802Z,8.32
2022-12-09T16:25:38.577Z,8.43
2022-12-09T16:28:06.931Z,8.52
2022-12-09T16:30:45.589Z,8.45
2022-12-09T16:33:18.203Z,7.45
2022-12-09T16:35:57.040Z,8.48
2022-12-09T16:38:24.538Z,9.00
2022-12-09T16:41:04.362Z,8.65
2022-12-09T16:43:31.825Z,7.85
2022-12-09T16:46:34.499Z,8.40
2022-12-09T16:49:05.076Z,8.70
2022-12-09T16:51:32.427Z,8.25
2022-12-09T16:54:00.189Z,7.70
2022-12-09T16:56:30.253Z,9.35
2022-12-09T16:58:59.323Z,8.40
2022-12-09T17:01:35.374Z,8.52
2022-12-09T17:04:05.587Z,8.52
2022-12-09T17:06:32.729Z,7.95
2022-12-09T17:08:59.828Z,7.68
2022-12-09T17:11:27.008Z,8.27
2022-12-09T17:13:54.035Z,7.80
2022-12-09T17:16:24.208Z,7.35
2022-12-09T17:18:51.466Z,7.78
2022-12-09T17:21:18.952Z,7.70
2022-12-09T17:23:46.441Z,8.55
2022-12-09T17:26:16.857Z,7.78
2022-12-09T17:31:14.720Z,8.05
2022-12-09T17:33:43.922Z,8.30
2022-12-09T17:36:12.586Z,8.00
2022-12-09T17:38:39.672Z,7.57
2022-12-09T17:41:09.661Z,7.47
2022-12-09T17:43:37.136Z,7.63
2022-12-09T17:46:05.807Z,7.57
2022-12-09T17:48:34.266Z,7.65
2022-12-09T17:51:06.844Z,7.72
2022-12-09T17:53:36.589Z,8.25
2022-12-09T17:56:12.476Z,8.05
2022-12-09T17:58:39.812Z,7.80
2022-12-09T18:01:14.764Z,8.13
2022-12-09T18:04:00.210Z,7.13
2022-12-09T18:06:34.363Z,7.63
2022-12-09T18:09:06.320Z,7.07
2022-12-09T18:11:33.762Z,7.57
2022-12-09T18:14:01.284Z,7.07
2022-12-09T18:16:28.792Z,7.45
2022-12-09T18:18:55.938Z,7.10
2022-12-09T18:21:23.824Z,7.40
2022-12-09T18:23:50.898Z,7.88
2022-12-09T18:26:19.834Z,7.72
2022-12-09T18:28:46.994Z,7.15
2022-12-09T18:31:19.217Z,7.60
2022-12-09T18:33:46.820Z,7.43
2022-12-09T18:36:19.656Z,7.18
2022-12-09T18:38:47.092Z,6.88
2022-12-09T18:41:18.125Z,7.07
2022-12-09T18:43:47.528Z,7.22
2022-12-09T18:46:25.599Z,6.88
2022-12-09T18:49:01.421Z,7.25
2022-12-09T18:51:29.380Z,7.10
2022-12-09T18:54:00.600Z,7.43
2022-12-09T18:56:28.347Z,7.22
2022-12-09T18:59:11.770Z,7.10
2022-12-09T19:01:41.476Z,7.38
2022-12-09T19:04:13.362Z,6.38
2022-12-09T19:06:43.007Z,6.15
2022-12-09T19:09:14.697Z,7.28
2022-12-09T19:11:43.871Z,7.22
2022-12-09T19:14:11.664Z,7.28
2022-12-09T19:16:39.180Z,6.93
2022-12-09T19:19:10.119Z,6.97
2022-12-09T19:21:38.204Z,6.75
2022-12-09T19:24:06.912Z,6.57
2022-12-09T19:26:35.362Z,6.88
2022-12-09T19:29:05.448Z,6.45
2022-12-09T19:31:38.677Z,6.30
2022-12-09T19:34:09.244Z,6.60
2022-12-09T19:39:04.984Z,6.53
2022-12-09T19:41:32.240Z,6.65
2022-12-09T19:44:00.759Z,6.55
2022-12-09T19:46:28.606Z,5.93
2022-12-09T19:48:56.509Z,6.25
2022-12-09T19:51:24.477Z,6.30
2022-12-09T19:53:56.846Z,6.57
2022-12-09T19:56:24.821Z,6.13
2022-12-09T19:58:52.423Z,6.60
2022-12-09T20:01:22.595Z,6.32
2022-12-09T20:03:56.141Z,7.05
2022-12-09T20:06:23.729Z,6.10
2022-12-09T20:08:50.764Z,7.18
2022-12-09T20:11:21.004Z,6.45
2022-12-09T20:13:48.774Z,6.65
2022-12-09T20:16:19.414Z,6.45
2022-12-09T20:18:48.707Z,6.53
2022-12-09T20:21:18.137Z,6.10
2022-12-09T20:23:46.531Z,6.25
2022-12-09T20:26:19.696Z,6.65
2022-12-09T20:28:48.305Z,6.03
2022-12-09T20:31:18.877Z,5.60
2022-12-09T20:33:46.609Z,5.97
2022-12-09T20:36:18.377Z,6.03
2022-12-09T20:38:50.376Z,6.40
2022-12-09T20:41:17.522Z,6.10
2022-12-09T20:43:46.431Z,6.43
2022-12-09T20:46:15.905Z,6.65
2022-12-09T20:48:43.559Z,5.35
2022-12-09T20:51:15.072Z,5.97
2022-12-09T20:53:44.080Z,5.70
2022-12-09T20:56:12.062Z,5.80
2022-12-09T20:58:40.486Z,6.28
2022-12-09T21:01:14.090Z,5.85
2022-12-09T21:03:41.941Z,6.53
2022-12-09T21:06:09.732Z,5.95
2022-12-09T21:08:37.536Z,5.93
2022-12-09T21:11:11.310Z,6.50
2022-12-09T21:13:40.953Z,5.93
2022-12-09T21:16:16.070Z,6.07
2022-12-09T21:18:43.853Z,6.25
2022-12-09T21:21:10.896Z,5.35
2022-12-09T21:23:38.306Z,5.78
2022-12-09T21:26:14.016Z,6.35
2022-12-09T21:28:41.731Z,6.18
2022-12-09T21:31:13.138Z,5.95
2022-12-09T21:33:41.595Z,5.00
2022-12-09T21:36:12.344Z,5.78
2022-12-09T21:38:41.484Z,5.60
2022-12-09T21:41:11.016Z,5.72
2022-12-09T21:43:38.558Z,5.23
2022-12-09T21:46:09.816Z,5.70
2022-12-09T21:48:36.920Z,5.45
2022-12-09T21:51:04.503Z,5.40
2022-12-09T21:53:32.168Z,5.47
2022-12-09T21:56:08.518Z,5.45
2022-12-09T21:58:35.963Z,5.55
2022-12-09T22:01:19.496Z,5.38
2022-12-09T22:03:48.084Z,5.82
2022-12-09T22:06:16.366Z,5.40
2022-12-09T22:08:43.787Z,6.32
2022-12-09T22:11:13.203Z,6.03
2022-12-09T22:13:40.269Z,5.60
2022-12-09T22:16:09.573Z,5.13
2022-12-09T22:18:37.061Z,4.90
2022-12-09T22:23:55.192Z,5.18
2022-12-09T22:26:23.533Z,5.93
2022-12-09T22:28:51.994Z,5.68
2022-12-09T22:31:22.448Z,5.07
2022-12-09T22:36:19.243Z,5.63
2022-12-09T22:38:47.297Z,5.88
2022-12-09T22:41:17.220Z,5.18
2022-12-09T22:43:44.557Z,5.72
2022-12-09T22:46:17.731Z,5.70
2022-12-09T22:48:45.271Z,6.10
2022-12-09T22:51:15.760Z,5.53
2022-12-09T22:56:12.420Z,4.95
2022-12-09T22:58:39.840Z,5.80
2022-12-09T23:01:13.230Z,5.53
2022-12-09T23:03:40.511Z,5.10
2022-12-09T23:06:07.887Z,5.30
2022-12-09T23:08:36.394Z,5.13
2022-12-09T23:11:05.733Z,5.60
2022-12-09T23:13:36.228Z,5.70
2022-12-09T23:16:09.294Z,5.53
2022-12-09T23:18:36.666Z,5.18
2022-12-09T23:21:06.353Z,5.50
2022-12-09T23:23:33.736Z,5.50
2022-12-09T23:26:06.131Z,5.30
2022-12-09T23:28:37.418Z,4.82
2022-12-09T23:31:06.162Z,5.80
2022-12-09T23:33:34.802Z,5.40
2022-12-09T23:36:07.529Z,4.85
2022-12-09T23:38:37.852Z,5.18
2022-12-09T23:41:06.337Z,5.70
2022-12-09T23:43:35.254Z,4.93
2022-12-09T23:46:15.360Z,5.50
2022-12-09T23:48:44.147Z,5.78
2022-12-09T23:51:14.254Z,5.90
2022-12-09T23:53:42.568Z,5.22
2022-12-09T23:56:15.039Z,5.90
2022-12-09T23:58:42.812Z,5.57
